createdAt,value
2019-04-14T00:01:36.957Z,22.10
2019-04-14T00:04:13.983Z,21.37
2019-04-14T00:06:41.900Z,21.57
2019-04-14T00:09:07.974Z,24.00
2019-04-14T00:11:42.249Z,22.30
2019-04-14T00:14:09.727Z,25.33
2019-04-14T00:16:36.442Z,24.47
2019-04-14T00:19:04.372Z,23.87
2019-04-14T00:21:30.400Z,24.13
2019-04-14T00:23:56.680Z,24.73
2019-04-14T00:26:27.195Z,23.80
2019-04-14T00:28:53.492Z,25.50
2019-04-14T00:31:19.580Z,26.17
2019-04-14T00:33:47.490Z,24.47
2019-04-14T00:36:21.892Z,24.37
2019-04-14T00:38:50.009Z,28.30
2019-04-14T00:41:39.488Z,28.23
2019-04-14T00:44:03.616Z,27.20
2019-04-14T00:46:40.847Z,31.52
2019-04-14T00:49:07.043Z,28.63
2019-04-14T00:51:33.297Z,32.83
2019-04-14T00:54:00.258Z,35.30
2019-04-14T00:56:27.875Z,34.90
2019-04-14T00:58:53.945Z,36.43
2019-04-14T01:01:20.242Z,31.60
2019-04-14T01:03:46.962Z,34.50
2019-04-14T01:06:14.279Z,30.00
2019-04-14T01:08:40.446Z,38.30
2019-04-14T01:11:07.359Z,40.23
2019-04-14T01:13:33.918Z,34.37
2019-04-14T01:16:09.814Z,39.53
2019-04-14T01:18:27.653Z,36.17
2019-04-14T01:20:54.158Z,32.93
2019-04-14T01:23:21.551Z,39.53
2019-04-14T01:25:47.765Z,34.37
2019-04-14T01:28:14.346Z,32.83
2019-04-14T01:30:41.564Z,31.17
2019-04-14T01:33:07.810Z,31.10
2019-04-14T01:35:35.657Z,33.50
2019-04-14T01:38:01.630Z,31.77
2019-04-14T01:40:29.190Z,31.43
2019-04-14T01:42:54.943Z,32.47
2019-04-14T01:45:21.454Z,32.63
2019-04-14T01:47:48.948Z,33.37
2019-04-14T01:50:14.953Z,33.80
2019-04-14T01:52:50.385Z,32.73
2019-04-14T01:55:28.791Z,38.65
2019-04-14T01:57:58.902Z,36.17
2019-04-14T02:00:36.225Z,31.60
2019-04-14T02:03:04.043Z,33.27
2019-04-14T02:05:29.978Z,32.67
2019-04-14T02:07:56.413Z,39.30
2019-04-14T02:10:23.893Z,33.17
2019-04-14T02:12:49.878Z,38.30
2019-04-14T02:15:17.722Z,33.47
2019-04-14T02:17:43.866Z,31.10
2019-04-14T02:20:10.191Z,30.07
2019-04-14T02:22:37.623Z,28.67
2019-04-14T02:25:03.735Z,30.07
2019-04-14T02:27:31.678Z,30.40
2019-04-14T02:29:58.288Z,30.83
2019-04-14T02:32:55.017Z,36.60
2019-04-14T02:35:22.775Z,31.20
2019-04-14T02:37:46.552Z,32.03
2019-04-14T02:40:08.746Z,29.30
2019-04-14T02:45:10.619Z,30.60
2019-04-14T02:49:56.602Z,29.67
2019-04-14T02:52:28.204Z,30.17
2019-04-14T02:57:30.958Z,32.20
2019-04-14T02:59:43.238Z,29.17
2019-04-14T03:04:41.394Z,30.77
2019-04-14T03:07:08.682Z,32.57
2019-04-14T03:09:38.902Z,32.17
2019-04-14T03:12:09.143Z,32.40
2019-04-14T03:19:35.255Z,31.27
2019-04-14T03:22:13.117Z,32.80
2019-04-14T03:24:42.146Z,31.20
2019-04-14T03:27:24.905Z,32.50
2019-04-14T03:29:59.734Z,31.00
2019-04-14T03:32:38.996Z,34.00
2019-04-14T03:34:52.264Z,31.90
2019-04-14T03:37:39.589Z,32.20
2019-04-14T03:39:42.723Z,30.23
2019-04-14T03:42:08.710Z,33.00
2019-04-14T03:44:39.183Z,32.07
2019-04-14T03:47:08.715Z,33.30
2019-04-14T03:54:15.630Z,31.00
2019-04-14T03:56:33.455Z,32.90
2019-04-14T03:58:59.812Z,31.73
2019-04-14T04:01:25.925Z,33.07
2019-04-14T04:03:52.645Z,33.43
2019-04-14T04:06:20.263Z,32.83
2019-04-14T04:08:46.469Z,32.37
2019-04-14T04:11:12.874Z,34.23
2019-04-14T04:13:39.618Z,33.67
2019-04-14T04:16:13.833Z,32.70
2019-04-14T04:18:51.274Z,33.80
2019-04-14T04:21:11.931Z,34.57
2019-04-14T04:23:44.706Z,31.50
2019-04-14T04:26:26.170Z,34.60
2019-04-14T04:29:02.766Z,40.78
2019-04-14T04:31:35.026Z,32.93
2019-04-14T04:34:09.808Z,33.07
2019-04-14T04:36:42.294Z,34.17
2019-04-14T04:39:13.418Z,34.53
2019-04-14T04:41:40.753Z,41.28
2019-04-14T04:44:07.208Z,37.10
2019-04-14T04:46:33.611Z,42.40
2019-04-14T04:49:09.890Z,37.90
2019-04-14T04:51:27.099Z,42.07
2019-04-14T04:53:54.826Z,35.67
2019-04-14T04:56:20.850Z,35.70
2019-04-14T04:58:48.031Z,42.38
2019-04-14T05:01:14.492Z,38.77
2019-04-14T05:03:40.894Z,43.53
2019-04-14T05:06:15.389Z,44.87
2019-04-14T05:08:48.092Z,37.63
2019-04-14T05:11:20.990Z,36.17
2019-04-14T05:13:48.985Z,42.67
2019-04-14T05:16:15.163Z,38.20
2019-04-14T05:18:41.957Z,36.27
2019-04-14T05:21:08.637Z,35.20
2019-04-14T05:23:36.598Z,42.90
2019-04-14T05:26:02.740Z,46.43
2019-04-14T05:28:28.943Z,45.30
2019-04-14T05:30:56.768Z,38.77
2019-04-14T05:33:22.856Z,43.77
2019-04-14T05:35:49.050Z,36.90
2019-04-14T05:38:16.842Z,35.43
2019-04-14T05:40:42.906Z,44.60
2019-04-14T05:43:09.325Z,45.50
2019-04-14T05:45:37.242Z,48.48
2019-04-14T05:48:03.246Z,45.80
2019-04-14T05:50:29.617Z,39.43
2019-04-14T05:52:56.346Z,46.00
2019-04-14T05:55:24.086Z,40.20
2019-04-14T05:57:50.237Z,44.33
2019-04-14T06:00:19.090Z,45.23
2019-04-14T06:02:44.775Z,39.53
2019-04-14T06:05:12.949Z,44.60
2019-04-14T06:07:38.285Z,39.50
2019-04-14T06:10:05.301Z,44.90
2019-04-14T06:12:32.050Z,39.23
2019-04-14T06:14:58.793Z,44.50
2019-04-14T06:17:25.558Z,46.23
2019-04-14T06:19:52.337Z,44.60
2019-04-14T06:22:19.102Z,44.58
2019-04-14T06:24:45.837Z,45.17
2019-04-14T06:27:12.614Z,43.57
2019-04-14T06:29:39.403Z,38.97
2019-04-14T06:32:25.789Z,36.60
2019-04-14T06:35:12.119Z,36.10
2019-04-14T06:37:45.366Z,36.17
2019-04-14T06:40:12.095Z,36.57
2019-04-14T06:42:38.844Z,37.07
2019-04-14T06:45:05.584Z,42.87
2019-04-14T06:47:32.358Z,40.60
2019-04-14T06:49:59.249Z,44.60
2019-04-14T06:52:25.985Z,45.05
2019-04-14T06:54:52.706Z,44.38
2019-04-14T06:57:19.481Z,45.43
2019-04-14T06:59:46.207Z,44.95
2019-04-14T07:02:12.938Z,46.50
2019-04-14T07:04:39.675Z,38.93
2019-04-14T07:07:06.410Z,37.33
2019-04-14T07:09:33.142Z,35.87
2019-04-14T07:11:59.973Z,42.33
2019-04-14T07:14:26.626Z,37.43
2019-04-14T07:16:53.359Z,36.30
2019-04-14T07:19:21.098Z,35.27
2019-04-14T07:21:47.830Z,33.50
2019-04-14T07:24:14.570Z,35.33
2019-04-14T07:26:41.288Z,36.03
2019-04-14T07:29:08.076Z,34.13
2019-04-14T07:31:43.566Z,31.67
2019-04-14T07:34:30.742Z,33.20
2019-04-14T07:37:19.142Z,32.10
2019-04-14T07:39:51.711Z,32.90
2019-04-14T07:42:24.743Z,40.75
2019-04-14T07:44:59.310Z,32.77
2019-04-14T07:47:29.910Z,30.97
2019-04-14T07:50:14.503Z,38.33
2019-04-14T07:52:54.797Z,34.60
2019-04-14T07:55:41.918Z,35.95
2019-04-14T07:58:20.430Z,33.27
2019-04-14T08:00:57.950Z,31.53
2019-04-14T08:03:32.222Z,31.10
2019-04-14T08:05:58.943Z,31.23
2019-04-14T08:08:25.686Z,31.83
2019-04-14T08:10:52.402Z,30.60
2019-04-14T08:13:19.146Z,28.70
2019-04-14T08:15:45.868Z,31.67
2019-04-14T08:18:12.614Z,30.60
2019-04-14T08:20:39.384Z,30.13
2019-04-14T08:23:06.097Z,31.33
2019-04-14T08:25:32.822Z,28.17
2019-04-14T08:27:59.594Z,29.87
2019-04-14T08:30:26.351Z,30.13
2019-04-14T08:32:54.188Z,37.47
2019-04-14T08:35:20.914Z,33.23
2019-04-14T08:37:47.788Z,31.53
2019-04-14T08:40:14.578Z,29.90
2019-04-14T08:43:06.069Z,30.00
2019-04-14T08:45:53.211Z,32.17
2019-04-14T08:48:31.773Z,31.13
2019-04-14T08:51:04.273Z,30.57
2019-04-14T08:53:40.854Z,31.80
2019-04-14T08:56:13.266Z,32.07
2019-04-14T08:58:49.502Z,31.13
2019-04-14T09:01:23.650Z,32.17
2019-04-14T09:03:56.178Z,31.93
2019-04-14T09:06:33.570Z,34.10
2019-04-14T09:09:09.768Z,33.80
2019-04-14T09:11:43.418Z,31.23
2019-04-14T09:14:10.199Z,32.87
2019-04-14T09:16:36.926Z,31.30
2019-04-14T09:19:07.795Z,29.80
2019-04-14T09:21:30.434Z,32.50
2019-04-14T09:23:57.278Z,31.77
2019-04-14T09:26:24.030Z,28.87
2019-04-14T09:28:50.790Z,30.10
2019-04-14T09:31:17.576Z,31.50
2019-04-14T09:33:44.334Z,30.97
2019-04-14T09:36:11.078Z,29.10
2019-04-14T09:38:37.951Z,28.57
2019-04-14T09:41:04.682Z,28.17
2019-04-14T09:43:31.438Z,31.68
2019-04-14T09:45:58.195Z,30.57
2019-04-14T09:48:24.926Z,29.97
2019-04-14T09:51:03.894Z,29.10
2019-04-14T09:53:19.267Z,30.90
2019-04-14T09:55:45.994Z,30.50
2019-04-14T09:58:12.739Z,30.00
2019-04-14T10:00:40.371Z,28.60
2019-04-14T10:03:07.334Z,27.40
2019-04-14T10:05:34.057Z,26.60
2019-04-14T10:08:00.794Z,27.07
2019-04-14T10:10:27.574Z,26.93
2019-04-14T10:12:54.434Z,28.00
2019-04-14T10:15:21.171Z,26.70
2019-04-14T10:17:47.929Z,27.20
2019-04-14T10:20:14.990Z,27.17
2019-04-14T10:22:41.726Z,27.50
2019-04-14T10:25:08.482Z,28.10
2019-04-14T10:27:35.261Z,33.83
2019-04-14T10:30:02.179Z,29.03
2019-04-14T10:32:28.910Z,26.93
2019-04-14T10:34:55.656Z,25.40
2019-04-14T10:37:22.394Z,26.87
2019-04-14T10:39:49.381Z,29.50
2019-04-14T10:42:16.222Z,27.47
2019-04-14T10:44:43.078Z,27.30
2019-04-14T10:47:09.806Z,31.40
2019-04-14T10:49:36.558Z,29.00
2019-04-14T10:52:03.376Z,29.10
2019-04-14T10:54:30.122Z,26.33
2019-04-14T10:56:56.865Z,26.33
2019-04-14T10:59:23.602Z,25.03
2019-04-14T11:01:51.460Z,24.67
2019-04-14T11:04:18.242Z,25.23
2019-04-14T11:06:54.529Z,25.70
2019-04-14T11:09:21.270Z,25.70
2019-04-14T11:11:47.989Z,28.42
2019-04-14T11:14:14.818Z,26.40
2019-04-14T11:16:41.564Z,28.90
2019-04-14T11:19:08.313Z,25.70
2019-04-14T11:21:42.340Z,25.07
2019-04-14T11:24:01.865Z,27.35
2019-04-14T11:26:28.604Z,25.20
2019-04-14T11:28:55.346Z,23.23
2019-04-14T11:31:27.849Z,24.10
2019-04-14T11:33:59.538Z,23.10
2019-04-14T11:36:46.717Z,23.40
2019-04-14T11:39:14.445Z,23.57
2019-04-14T11:41:41.142Z,23.40
2019-04-14T11:44:07.928Z,23.17
2019-04-14T11:46:34.626Z,25.00
2019-04-14T11:49:01.437Z,23.60
2019-04-14T11:51:28.225Z,24.63
2019-04-14T11:53:54.962Z,22.27
2019-04-14T11:56:21.693Z,23.60
2019-04-14T11:58:48.441Z,22.70
2019-04-14T12:01:34.774Z,21.67
2019-04-14T12:04:08.460Z,21.70
2019-04-14T12:06:57.846Z,24.63
2019-04-14T12:09:29.176Z,21.20
2019-04-14T12:11:55.918Z,21.73
2019-04-14T12:14:22.695Z,21.50
2019-04-14T12:16:49.506Z,21.27
2019-04-14T12:19:16.171Z,21.77
2019-04-14T12:21:42.898Z,21.60
2019-04-14T12:24:09.678Z,19.90
2019-04-14T12:26:36.497Z,22.03
2019-04-14T12:29:05.174Z,20.87
2019-04-14T12:31:30.892Z,20.90
2019-04-14T12:33:56.725Z,21.50
2019-04-14T12:36:23.446Z,20.97
2019-04-14T12:38:50.298Z,21.20
2019-04-14T12:41:22.625Z,19.10
2019-04-14T12:43:59.114Z,21.07
2019-04-14T12:46:34.838Z,19.80
2019-04-14T12:49:08.318Z,19.20
2019-04-14T12:51:37.746Z,19.53
2019-04-14T12:54:04.578Z,20.00
2019-04-14T12:56:31.300Z,18.57
2019-04-14T12:59:17.663Z,21.10
2019-04-14T13:01:49.738Z,19.43
2019-04-14T13:04:16.581Z,19.20
2019-04-14T13:06:43.318Z,18.67
2019-04-14T13:09:10.189Z,18.57
2019-04-14T13:11:36.921Z,18.63
2019-04-14T13:14:03.642Z,20.05
2019-04-14T13:16:30.782Z,18.17
2019-04-14T13:18:57.514Z,17.37
2019-04-14T13:21:24.257Z,16.60
2019-04-14T13:23:50.974Z,15.30
2019-04-14T13:26:17.728Z,16.13
2019-04-14T13:28:44.442Z,16.33
2019-04-14T13:31:11.207Z,16.53
2019-04-14T13:33:38.113Z,15.70
2019-04-14T13:36:04.941Z,18.05
2019-04-14T13:38:31.800Z,17.25
2019-04-14T13:40:58.542Z,17.62
2019-04-14T13:43:25.258Z,17.92
2019-04-14T13:45:52.078Z,16.30
2019-04-14T13:48:18.801Z,15.93
2019-04-14T13:50:45.551Z,14.30
2019-04-14T13:53:12.265Z,15.07
2019-04-14T13:55:39.047Z,13.83
2019-04-14T13:58:05.785Z,14.00
2019-04-14T14:00:32.545Z,14.27
2019-04-14T14:02:59.350Z,13.50
2019-04-14T14:05:26.097Z,13.77
2019-04-14T14:07:52.817Z,13.27
2019-04-14T14:10:19.562Z,13.90
2019-04-14T14:12:53.531Z,12.90
2019-04-14T14:15:42.822Z,14.60
2019-04-14T14:18:15.366Z,14.40
2019-04-14T14:20:48.467Z,13.50
2019-04-14T14:23:27.662Z,14.80
2019-04-14T14:25:56.715Z,15.50
2019-04-14T14:28:23.448Z,14.07
2019-04-14T14:30:50.195Z,14.60
2019-04-14T14:33:16.918Z,14.30
2019-04-14T14:35:43.650Z,14.67
2019-04-14T14:38:10.386Z,14.10
2019-04-14T14:40:37.134Z,12.40
2019-04-14T14:43:03.889Z,15.20
2019-04-14T14:45:37.085Z,13.60
2019-04-14T14:48:14.665Z,13.23
2019-04-14T14:51:01.014Z,12.30
2019-04-14T14:53:27.849Z,12.97
2019-04-14T14:55:54.589Z,12.50
2019-04-14T14:58:21.325Z,13.90
2019-04-14T15:00:48.070Z,13.40
2019-04-14T15:03:14.795Z,13.30
2019-04-14T15:05:41.548Z,14.27
2019-04-14T15:08:08.258Z,13.50
2019-04-14T15:10:35.082Z,13.90
2019-04-14T15:13:01.802Z,12.90
2019-04-14T15:15:28.696Z,12.60
2019-04-14T15:17:55.413Z,13.63
2019-04-14T15:20:22.161Z,13.63
2019-04-14T15:23:01.201Z,13.03
2019-04-14T15:25:27.758Z,13.73
2019-04-14T15:27:54.503Z,13.30
2019-04-14T15:30:21.498Z,12.73
2019-04-14T15:32:48.250Z,12.50
2019-04-14T15:35:14.974Z,12.53
2019-04-14T15:37:41.726Z,13.70
2019-04-14T15:40:08.438Z,15.10
2019-04-14T15:42:35.245Z,13.80
2019-04-14T15:45:01.974Z,15.20
2019-04-14T15:47:28.691Z,14.43
2019-04-14T15:49:55.422Z,14.03
2019-04-14T15:52:22.170Z,14.33
2019-04-14T15:54:48.894Z,14.13
2019-04-14T15:57:23.446Z,14.40
2019-04-14T15:59:53.836Z,14.10
2019-04-14T16:02:29.188Z,13.63
2019-04-14T16:05:03.551Z,13.53
2019-04-14T16:07:37.752Z,14.50
2019-04-14T16:10:11.626Z,14.50
2019-04-14T16:12:45.149Z,13.10
2019-04-14T16:15:17.646Z,14.50
2019-04-14T16:17:50.611Z,14.30
2019-04-14T16:20:22.147Z,12.63
2019-04-14T16:22:48.883Z,13.40
2019-04-14T16:25:15.614Z,14.40
2019-04-14T16:27:48.050Z,13.50
2019-04-14T16:30:25.455Z,14.23
2019-04-14T16:33:09.138Z,14.37
2019-04-14T16:35:35.903Z,14.57
2019-04-14T16:38:02.654Z,13.13
2019-04-14T16:40:29.366Z,11.60
2019-04-14T16:42:56.137Z,11.90
2019-04-14T16:45:22.854Z,12.97
2019-04-14T16:47:49.616Z,13.07
2019-04-14T16:50:16.363Z,11.50
2019-04-14T16:52:47.471Z,12.80
2019-04-14T16:55:19.505Z,12.77
2019-04-14T16:58:07.726Z,12.37
2019-04-14T17:00:37.267Z,13.80
2019-04-14T17:03:03.606Z,12.13
2019-04-14T17:05:30.334Z,12.43
2019-04-14T17:07:57.190Z,11.00
2019-04-14T17:10:23.902Z,11.00
2019-04-14T17:12:50.680Z,11.00
2019-04-14T17:15:39.352Z,12.23
2019-04-14T17:18:27.583Z,11.50
2019-04-14T17:21:02.995Z,11.43
2019-04-14T17:23:40.002Z,11.00
2019-04-14T17:26:11.322Z,10.10
2019-04-14T17:28:42.898Z,9.93
2019-04-14T17:31:15.326Z,9.47
2019-04-14T17:33:49.300Z,10.17
2019-04-14T17:36:21.809Z,9.00
2019-04-14T17:38:54.222Z,9.60
2019-04-14T17:41:29.355Z,8.47
2019-04-14T17:44:02.284Z,8.70
2019-04-14T17:46:52.545Z,8.57
2019-04-14T17:49:31.179Z,8.87
2019-04-14T17:52:04.879Z,8.63
2019-04-14T17:54:36.422Z,8.17
2019-04-14T17:57:27.642Z,9.07
2019-04-14T18:00:02.051Z,7.93
2019-04-14T18:02:34.515Z,7.63
2019-04-14T18:05:06.275Z,7.17
2019-04-14T18:07:39.574Z,7.70
2019-04-14T18:10:19.872Z,8.07
2019-04-14T18:12:58.659Z,7.70
2019-04-14T18:15:34.028Z,8.03
2019-04-14T18:18:06.677Z,8.30
2019-04-14T18:20:38.617Z,7.92
2019-04-14T18:23:05.392Z,8.03
2019-04-14T18:25:32.125Z,8.20
2019-04-14T18:28:22.390Z,8.17
2019-04-14T18:30:55.616Z,8.10
2019-04-14T18:33:44.107Z,8.85
2019-04-14T18:36:16.722Z,8.03
2019-04-14T18:38:50.210Z,7.90
2019-04-14T18:41:24.919Z,7.90
2019-04-14T18:44:13.239Z,8.40
2019-04-14T18:46:48.442Z,9.05
2019-04-14T18:49:20.282Z,8.63
2019-04-14T18:52:08.458Z,9.43
2019-04-14T18:54:54.114Z,8.50
2019-04-14T18:57:15.775Z,8.90
2019-04-14T18:59:52.283Z,9.10
2019-04-14T19:02:19.710Z,8.37
2019-04-14T19:04:47.190Z,9.90
2019-04-14T19:07:14.405Z,9.23
2019-04-14T19:09:41.134Z,10.03
2019-04-14T19:12:14.200Z,10.00
2019-04-14T19:14:40.947Z,10.40
2019-04-14T19:17:11.778Z,9.20
2019-04-14T19:19:40.662Z,9.80
2019-04-14T19:22:07.432Z,10.70
2019-04-14T19:24:34.627Z,9.17
2019-04-14T19:27:02.404Z,9.30
2019-04-14T19:29:29.832Z,10.40
2019-04-14T19:31:56.586Z,10.37
2019-04-14T19:34:24.143Z,9.10
2019-04-14T19:36:50.892Z,9.17
2019-04-14T19:39:17.631Z,9.43
2019-04-14T19:41:44.392Z,9.27
2019-04-14T19:44:11.959Z,7.67
2019-04-14T19:46:38.767Z,9.30
2019-04-14T19:49:05.507Z,8.80
2019-04-14T19:51:32.267Z,8.77
2019-04-14T19:53:59.004Z,9.07
2019-04-14T19:56:25.992Z,8.83
2019-04-14T19:58:52.758Z,9.40
2019-04-14T20:01:19.527Z,9.00
2019-04-14T20:03:46.274Z,8.50
2019-04-14T20:06:13.014Z,9.73
2019-04-14T20:08:39.865Z,9.70
2019-04-14T20:11:06.595Z,9.40
2019-04-14T20:13:37.259Z,9.20
2019-04-14T20:16:16.099Z,9.75
2019-04-14T20:18:53.870Z,8.60
2019-04-14T20:21:38.527Z,8.70
2019-04-14T20:24:11.274Z,8.97
2019-04-14T20:26:46.063Z,8.40
2019-04-14T20:29:16.743Z,8.97
2019-04-14T20:31:48.222Z,8.93
2019-04-14T20:34:14.997Z,10.20
2019-04-14T20:36:41.743Z,9.27
2019-04-14T20:39:12.194Z,8.90
2019-04-14T20:41:38.941Z,9.03
2019-04-14T20:44:05.666Z,9.30
2019-04-14T20:46:32.410Z,10.13
2019-04-14T20:48:59.172Z,9.13
2019-04-14T20:51:25.917Z,10.30
2019-04-14T20:53:52.662Z,10.40
2019-04-14T20:56:19.397Z,10.23
2019-04-14T20:58:46.142Z,9.85
2019-04-14T21:01:12.865Z,9.60
2019-04-14T21:03:53.393Z,10.37
2019-04-14T21:06:30.035Z,9.40
2019-04-14T21:09:07.110Z,10.53
2019-04-14T21:11:39.679Z,9.70
2019-04-14T21:14:14.114Z,9.67
2019-04-14T21:16:46.157Z,9.90
2019-04-14T21:19:17.834Z,9.53
2019-04-14T21:21:51.229Z,10.10
2019-04-14T21:24:40.494Z,10.10
2019-04-14T21:27:15.259Z,9.87
2019-04-14T21:29:47.737Z,9.37
2019-04-14T21:32:18.514Z,9.60
2019-04-14T21:35:05.698Z,9.60
2019-04-14T21:37:46.526Z,9.60
2019-04-14T21:40:18.570Z,10.37
2019-04-14T21:42:45.363Z,10.00
2019-04-14T21:45:12.033Z,9.60
2019-04-14T21:47:38.771Z,9.53
2019-04-14T21:50:05.514Z,10.67
2019-04-14T21:52:36.451Z,9.97
2019-04-14T21:55:03.186Z,10.88
2019-04-14T21:57:36.393Z,10.37
2019-04-14T22:00:09.466Z,9.83
2019-04-14T22:03:01.870Z,9.70
2019-04-14T22:05:36.654Z,11.08
2019-04-14T22:08:14.248Z,10.17
2019-04-14T22:10:46.418Z,10.65
2019-04-14T22:13:13.154Z,10.70
2019-04-14T22:15:39.882Z,10.20
2019-04-14T22:18:06.642Z,11.45
2019-04-14T22:20:33.367Z,11.25
2019-04-14T22:23:00.110Z,9.80
2019-04-14T22:25:26.846Z,11.07
2019-04-14T22:27:53.597Z,10.85
2019-04-14T22:30:20.339Z,10.47
2019-04-14T22:32:47.078Z,10.10
2019-04-14T22:35:13.821Z,10.13
2019-04-14T22:37:40.553Z,10.27
2019-04-14T22:40:07.301Z,10.93
2019-04-14T22:42:34.026Z,9.80
2019-04-14T22:45:00.778Z,10.33
2019-04-14T22:47:27.499Z,11.13
2019-04-14T22:49:54.347Z,10.50
2019-04-14T22:52:21.088Z,11.47
2019-04-14T22:54:47.826Z,11.27
2019-04-14T22:57:14.566Z,11.57
2019-04-14T22:59:41.321Z,11.55
2019-04-14T23:02:12.561Z,11.63
2019-04-14T23:04:48.280Z,11.43
2019-04-14T23:07:33.992Z,11.17
2019-04-14T23:10:08.759Z,10.60
2019-04-14T23:12:48.097Z,11.27
2019-04-14T23:15:20.643Z,10.63
2019-04-14T23:18:03.074Z,10.50
2019-04-14T23:20:53.972Z,9.90
2019-04-14T23:23:43.370Z,10.50
2019-04-14T23:26:10.136Z,9.70
2019-04-14T23:28:36.872Z,10.63
2019-04-14T23:31:03.601Z,11.00
2019-04-14T23:33:30.337Z,9.97
2019-04-14T23:35:57.097Z,10.00
2019-04-14T23:38:23.821Z,11.07
2019-04-14T23:40:50.561Z,10.67
2019-04-14T23:43:17.330Z,10.60
2019-04-14T23:45:44.058Z,10.60
2019-04-14T23:48:10.814Z,11.70
2019-04-14T23:50:37.537Z,11.50
2019-04-14T23:53:04.255Z,11.00
2019-04-14T23:55:31.008Z,10.63
2019-04-14T23:57:57.747Z,11.67
